Time;durP1;ratioP1;P1;durP2;ratioP2;P2;SDS_P1;SDS_P2;PMS_P1;PMS_P2;Temp;Humidity;BMP_temperature;BMP_pressure;BME280_temperature;BME280_humidity;BME280_pressure;Samples;Min_cycle;Max_cycle;Signal;HPM_P1;HPM_P2
2021/10/02 00:44:40;;;;;;;26.27;17.77;;;;;;;11.93;100.00;100948.63;5135865;27;20074;-77
2021/10/02 00:47:11;;;;;;;26.50;17.27;;;;;;;11.86;100.00;100944.56;5136158;27;20043;-78
2021/10/02 00:49:41;;;;;;;29.90;17.58;;;;;;;11.79;100.00;100945.84;5136499;27;20047;-77
2021/10/02 00:52:11;;;;;;;28.45;18.38;;;;;;;11.75;100.00;100939.78;5135967;27;20085;-77
2021/10/02 00:54:42;;;;;;;28.77;17.55;;;;;;;11.77;100.00;100937.00;5135946;27;20452;-78
2021/10/02 00:57:11;;;;;;;28.10;17.58;;;;;;;11.70;100.00;100941.00;5135807;27;20065;-77
2021/10/02 00:59:40;;;;;;;26.15;17.48;;;;;;;11.63;100.00;100936.91;5136084;27;20133;-77
2021/10/02 01:02:14;;;;;;;29.52;17.95;;;;;;;11.58;100.00;100938.94;5135838;27;20095;-86
2021/10/02 01:04:55;;;;;;;28.20;17.80;;;;;;;11.51;100.00;100943.78;5135760;27;20070;-82
2021/10/02 01:07:29;;;;;;;24.70;17.30;;;;;;;11.60;100.00;100942.44;5135338;27;20130;-83
2021/10/02 01:10:22;;;;;;;29.05;18.27;;;;;;;11.60;100.00;100947.78;5135932;27;20047;-78
2021/10/02 01:13:00;;;;;;;28.60;17.33;;;;;;;11.69;100.00;100942.81;5135598;27;20064;-79
2021/10/02 01:15:38;;;;;;;29.10;18.02;;;;;;;11.82;100.00;100943.03;5135205;27;20122;-79
2021/10/02 01:18:12;;;;;;;26.67;17.17;;;;;;;11.95;100.00;100935.19;5135483;27;20088;-79
2021/10/02 01:20:55;;;;;;;27.88;16.90;;;;;;;12.10;100.00;100941.50;5135790;27;20053;-79
2021/10/02 01:23:50;;;;;;;27.02;16.90;;;;;;;12.17;100.00;100950.94;5135162;27;20054;-80
2021/10/02 01:26:50;;;;;;;28.73;18.05;;;;;;;12.19;100.00;100941.00;5132026;27;20055;-76
2021/10/02 01:29:22;;;;;;;29.73;16.95;;;;;;;12.16;100.00;100926.00;5135028;27;20047;-75
2021/10/02 01:32:00;;;;;;;30.45;17.55;;;;;;;12.30;100.00;100933.22;5135350;27;20042;-74
2021/10/02 01:34:36;;;;;;;26.88;17.67;;;;;;;12.38;100.00;100935.47;5134901;27;20069;-77
2021/10/02 01:37:16;;;;;;;26.95;17.42;;;;;;;12.35;100.00;100936.50;5135091;27;20051;-77
2021/10/02 01:48:14;;;;;;;26.15;17.05;;;;;;;12.42;100.00;100937.88;5135068;27;20553;-75
2021/10/02 01:50:44;;;;;;;26.63;17.65;;;;;;;12.38;100.00;100939.00;5134709;27;20062;-76
2021/10/02 01:53:13;;;;;;;27.48;17.48;;;;;;;12.28;100.00;100940.47;5133317;27;20047;-75
2021/10/02 01:55:43;;;;;;;31.35;17.70;;;;;;;12.27;100.00;100934.28;5134666;27;20381;-74
2021/10/02 01:58:14;;;;;;;34.38;18.20;;;;;;;12.24;100.00;100936.25;5134768;27;20053;-74
2021/10/02 02:00:47;;;;;;;28.38;17.48;;;;;;;12.20;100.00;100942.72;5134542;27;20126;-74
2021/10/02 02:03:20;;;;;;;28.08;17.60;;;;;;;12.26;100.00;100940.56;5134663;27;20047;-83
2021/10/02 02:05:50;;;;;;;27.90;17.17;;;;;;;12.27;100.00;100934.28;5133746;27;20100;-79
2021/10/02 02:08:21;;;;;;;30.98;17.25;;;;;;;12.26;100.00;100942.38;5134696;27;20121;-82
2021/10/02 02:10:50;;;;;;;29.15;16.40;;;;;;;12.29;100.00;100939.53;5134786;27;20126;-77
2021/10/02 02:13:19;;;;;;;28.73;17.08;;;;;;;12.21;100.00;100937.28;5134290;27;20045;-83
2021/10/02 02:15:54;;;;;;;25.08;17.38;;;;;;;12.24;100.00;100938.91;5134763;27;20043;-76
2021/10/02 02:18:26;;;;;;;30.63;17.80;;;;;;;12.40;100.00;100929.09;5133899;27;20430;-78
2021/10/02 02:20:56;;;;;;;27.08;16.23;;;;;;;12.35;100.00;100931.13;5134651;27;20047;-77
2021/10/02 02:23:26;;;;;;;28.42;17.85;;;;;;;12.27;100.00;100928.06;5134140;27;20042;-77
2021/10/02 02:25:55;;;;;;;26.35;17.38;;;;;;;12.21;100.00;100928.41;5133983;27;20051;-77
2021/10/02 02:28:25;;;;;;;31.50;17.30;;;;;;;12.21;100.00;100926.59;5133941;27;20469;-78
2021/10/02 02:30:55;;;;;;;30.88;17.20;;;;;;;12.15;100.00;100918.88;5134124;27;20043;-78
2021/10/02 02:33:23;;;;;;;30.60;17.55;;;;;;;12.18;100.00;100924.09;5133821;27;20046;-78
2021/10/02 02:35:52;;;;;;;26.25;15.93;;;;;;;12.18;100.00;100917.88;5134239;27;20503;-78
2021/10/02 02:38:21;;;;;;;26.80;16.38;;;;;;;12.28;100.00;100924.44;5133839;27;20035;-81
2021/10/02 02:40:50;;;;;;;27.27;16.40;;;;;;;12.44;100.00;100914.56;5133971;27;20051;-78
2021/10/02 02:43:19;;;;;;;30.13;16.27;;;;;;;12.33;100.00;100917.84;5133824;27;20039;-77
2021/10/02 02:45:53;;;;;;;26.30;17.17;;;;;;;12.31;100.00;100913.56;5133854;27;20102;-77
2021/10/02 02:48:26;;;;;;;29.95;16.33;;;;;;;12.29;100.00;100912.78;5133884;27;20050;-82
2021/10/02 02:50:59;;;;;;;27.67;16.17;;;;;;;12.33;100.00;100915.19;5133778;27;20039;-77
2021/10/02 02:53:34;;;;;;;24.38;16.42;;;;;;;12.24;100.00;100909.50;5133928;28;20143;-77
2021/10/02 02:56:08;;;;;;;24.35;16.73;;;;;;;12.22;100.00;100909.59;5134355;27;20077;-77
2021/10/02 02:58:40;;;;;;;28.42;17.38;;;;;;;12.21;100.00;100909.69;5133395;28;20552;-80
2021/10/02 03:01:12;;;;;;;29.60;17.52;;;;;;;12.20;100.00;100911.50;5133930;28;20039;-79
2021/10/02 03:03:44;;;;;;;25.60;16.08;;;;;;;12.14;100.00;100910.97;5133393;28;20532;-76
2021/10/02 03:06:14;;;;;;;29.63;15.90;;;;;;;12.13;100.00;100909.25;5133666;28;20043;-73
2021/10/02 03:08:46;;;;;;;26.67;17.08;;;;;;;12.12;100.00;100902.16;5133294;28;20054;-73
2021/10/02 03:11:20;;;;;;;26.45;16.73;;;;;;;12.10;100.00;100893.38;5133990;27;20400;-73
2021/10/02 03:13:51;;;;;;;27.65;16.02;;;;;;;12.11;100.00;100901.31;5133900;28;20082;-74
2021/10/02 03:16:22;;;;;;;26.05;16.15;;;;;;;12.23;100.00;100905.94;5133859;28;20083;-74
2021/10/02 03:18:56;;;;;;;24.67;16.02;;;;;;;12.23;100.00;100905.94;5133608;28;20067;-74
2021/10/02 03:21:25;;;;;;;24.40;15.70;;;;;;;12.39;100.00;100900.59;5133557;28;20081;-75
2021/10/02 03:23:54;;;;;;;26.67;16.65;;;;;;;12.35;100.00;100900.84;5133524;28;20047;-76
2021/10/02 03:26:22;;;;;;;26.63;16.27;;;;;;;12.29;100.00;100902.94;5133565;28;20484;-76
2021/10/02 03:28:51;;;;;;;26.80;15.98;;;;;;;12.30;100.00;100903.81;5133473;28;20051;-76
2021/10/02 03:31:22;;;;;;;24.92;15.93;;;;;;;12.28;100.00;100892.34;5133508;27;20039;-76
2021/10/02 03:33:52;;;;;;;22.77;16.00;;;;;;;12.40;100.00;100894.31;5133786;28;20044;-77
2021/10/02 03:36:21;;;;;;;24.17;15.05;;;;;;;12.29;100.00;100894.06;5133573;27;20039;-78
2021/10/02 03:38:49;;;;;;;23.33;15.57;;;;;;;12.25;100.00;100893.34;5133528;28;20126;-77
2021/10/02 03:41:18;;;;;;;27.05;15.55;;;;;;;12.19;100.00;100900.88;5133492;28;20473;-78
2021/10/02 03:43:47;;;;;;;27.52;17.55;;;;;;;12.15;100.00;100894.81;5132983;27;20043;-79
2021/10/02 03:46:15;;;;;;;24.27;15.57;;;;;;;12.03;100.00;100888.34;5133366;27;20043;-78
2021/10/02 03:48:44;;;;;;;25.92;16.15;;;;;;;11.89;100.00;100888.28;5132926;28;20059;-78
2021/10/02 03:51:13;;;;;;;28.02;15.93;;;;;;;11.80;100.00;100888.78;5133331;28;20047;-78
2021/10/02 03:53:42;;;;;;;26.90;15.10;;;;;;;11.80;100.00;100886.13;5132928;28;20499;-81
2021/10/02 03:56:12;;;;;;;26.80;16.05;;;;;;;11.60;100.00;100883.66;5133543;28;20377;-82
2021/10/02 03:58:41;;;;;;;28.58;16.80;;;;;;;11.42;100.00;100881.00;5133032;28;20035;-84
2021/10/02 04:01:11;;;;;;;28.02;16.60;;;;;;;11.46;100.00;100887.03;5133277;28;20043;-84
2021/10/02 04:03:39;;;;;;;25.50;16.35;;;;;;;11.34;100.00;100885.03;5134624;27;20130;-84
2021/10/02 04:06:07;;;;;;;27.58;16.15;;;;;;;11.27;100.00;100887.16;5137002;27;20043;-79
2021/10/02 04:08:40;;;;;;;28.33;16.88;;;;;;;11.21;100.00;100879.50;5136563;27;20047;-85
2021/10/02 04:11:08;;;;;;;25.13;16.63;;;;;;;11.13;100.00;100885.22;5136854;27;20100;-86
2021/10/02 04:13:37;;;;;;;28.70;17.30;;;;;;;11.13;100.00;100882.56;5136446;27;20043;-86
2021/10/02 04:16:06;;;;;;;25.25;15.68;;;;;;;11.14;100.00;100888.75;5138262;27;20054;-85
2021/10/02 04:18:36;;;;;;;24.90;16.02;;;;;;;11.07;100.00;100884.69;5136215;27;20043;-75
2021/10/02 04:21:05;;;;;;;26.35;16.40;;;;;;;11.05;100.00;100882.09;5135161;27;20051;-76
2021/10/02 04:23:33;;;;;;;24.33;15.63;;;;;;;10.99;100.00;100882.41;5136091;27;20035;-75
2021/10/02 04:26:03;;;;;;;24.55;16.58;;;;;;;10.99;100.00;100887.75;5136194;27;20083;-76
2021/10/02 04:28:31;;;;;;;28.23;17.13;;;;;;;11.03;100.00;100893.81;5136708;27;20353;-79
2021/10/02 04:31:02;;;;;;;27.17;16.75;;;;;;;10.91;100.00;100889.09;5136293;27;20043;-79
2021/10/02 04:33:31;;;;;;;28.42;16.58;;;;;;;10.85;100.00;100891.13;5136184;27;20039;-75
2021/10/02 04:36:00;;;;;;;28.90;16.67;;;;;;;10.77;100.00;100898.66;5136246;27;20043;-75
2021/10/02 04:38:29;;;;;;;24.42;15.70;;;;;;;10.72;100.00;100890.03;5136220;27;20063;-83
2021/10/02 04:40:57;;;;;;;26.10;17.48;;;;;;;10.69;100.00;100889.31;5136290;27;20440;-76
2021/10/02 04:43:27;;;;;;;26.48;17.17;;;;;;;10.62;100.00;100888.78;5136134;27;20426;-75
2021/10/02 04:45:55;;;;;;;26.58;16.83;;;;;;;10.62;100.00;100893.25;5135079;27;20051;-78
2021/10/02 04:48:24;;;;;;;30.27;17.02;;;;;;;10.61;100.00;100897.69;5135914;27;20460;-80
2021/10/02 04:50:53;;;;;;;30.33;17.05;;;;;;;10.59;100.00;100900.44;5135790;27;20507;-80
2021/10/02 04:53:21;;;;;;;26.30;17.17;;;;;;;10.65;100.00;100896.63;5136178;27;20043;-80
2021/10/02 04:55:49;;;;;;;26.25;16.48;;;;;;;10.75;100.00;100900.53;5135817;27;20857;-78
2021/10/02 04:58:17;;;;;;;28.63;17.05;;;;;;;10.75;100.00;100911.22;5134448;27;20047;-80
2021/10/02 05:00:47;;;;;;;27.02;16.80;;;;;;;10.79;100.00;100907.44;5135379;27;20047;-81
2021/10/02 05:03:15;;;;;;;27.08;17.08;;;;;;;10.84;100.00;100900.09;5135888;27;20068;-81
2021/10/02 05:05:43;;;;;;;29.65;16.77;;;;;;;10.93;100.00;100912.09;5135519;27;20047;-81
2021/10/02 05:08:12;;;;;;;29.30;17.60;;;;;;;10.99;100.00;100910.91;5135765;27;20046;-82
2021/10/02 05:10:40;;;;;;;27.63;17.02;;;;;;;11.03;100.00;100913.34;5135351;27;20551;-75
2021/10/02 05:13:08;;;;;;;27.35;17.58;;;;;;;11.08;100.00;100913.09;5135911;27;20035;-75
2021/10/02 05:15:37;;;;;;;28.40;17.15;;;;;;;11.15;100.00;100914.53;5135023;27;20046;-76
2021/10/02 05:18:06;;;;;;;25.02;16.17;;;;;;;11.25;100.00;100915.75;5135663;27;20091;-75
2021/10/02 05:20:34;;;;;;;26.95;16.52;;;;;;;11.33;100.00;100926.03;5134916;27;20480;-78
2021/10/02 05:23:04;;;;;;;25.13;16.83;;;;;;;11.43;100.00;100922.81;5135540;27;20114;-78
2021/10/02 05:25:33;;;;;;;28.33;16.65;;;;;;;11.51;100.00;100926.88;5135127;27;20062;-81
2021/10/02 05:28:02;;;;;;;27.98;16.15;;;;;;;11.56;100.00;100931.03;5135777;27;20043;-78
2021/10/02 05:30:30;;;;;;;24.50;15.88;;;;;;;11.59;100.00;100925.53;5134975;27;20039;-78
2021/10/02 05:32:59;;;;;;;29.73;14.48;;;;;;;11.66;100.00;100928.72;5134928;27;20039;-78
2021/10/02 05:35:28;;;;;;;21.23;14.20;;;;;;;11.72;100.00;100925.72;5134793;27;20050;-78
2021/10/02 05:37:56;;;;;;;25.20;15.10;;;;;;;11.80;100.00;100928.88;5134496;27;20134;-78
2021/10/02 05:40:25;;;;;;;20.75;13.40;;;;;;;11.87;100.00;100929.38;5134759;27;20035;-75
2021/10/02 05:42:53;;;;;;;24.00;14.32;;;;;;;11.91;100.00;100930.97;5134175;27;20075;-75
2021/10/02 05:45:21;;;;;;;25.48;14.32;;;;;;;11.99;100.00;100932.28;5134469;27;20088;-78
2021/10/02 05:47:50;;;;;;;26.00;14.50;;;;;;;12.13;100.00;100938.66;5134007;27;20039;-77
2021/10/02 05:50:18;;;;;;;21.98;13.90;;;;;;;12.14;100.00;100940.38;5134185;27;20108;-77
2021/10/02 05:52:47;;;;;;;22.52;13.98;;;;;;;12.31;100.00;100933.13;5133926;27;20054;-79
2021/10/02 05:55:16;;;;;;;25.00;13.90;;;;;;;12.40;99.49;100936.25;5134191;27;20035;-78
2021/10/02 05:57:44;;;;;;;23.02;14.80;;;;;;;12.46;99.49;100947.47;5134027;27;20314;-78
2021/10/02 06:00:13;;;;;;;24.92;14.35;;;;;;;12.67;98.54;100941.84;5134157;27;20040;-75
2021/10/02 06:02:43;;;;;;;24.90;13.65;;;;;;;12.85;95.30;100940.75;5134060;27;20108;-74
2021/10/02 06:05:12;;;;;;;21.05;13.55;;;;;;;12.92;94.54;100942.09;5134102;27;20131;-75
2021/10/02 06:07:43;;;;;;;18.17;12.27;;;;;;;12.90;93.57;100942.19;5133954;27;20074;-75
2021/10/02 06:10:12;;;;;;;19.80;13.43;;;;;;;12.83;93.22;100948.00;5134313;27;20039;-75
2021/10/02 06:12:41;;;;;;;22.55;12.60;;;;;;;12.72;94.25;100951.31;5134264;27;20398;-75
2021/10/02 06:15:09;;;;;;;21.65;12.68;;;;;;;12.69;95.62;100946.13;5134335;27;20043;-75
2021/10/02 06:17:38;;;;;;;21.00;12.35;;;;;;;12.81;94.00;100950.78;5134119;27;20491;-83
2021/10/02 06:20:08;;;;;;;23.73;12.63;;;;;;;12.92;93.36;100941.25;5133825;27;20074;-75
2021/10/02 06:22:36;;;;;;;20.10;12.73;;;;;;;13.02;93.15;100945.97;5134136;27;20082;-75
2021/10/02 06:25:05;;;;;;;18.88;11.90;;;;;;;13.07;91.92;100943.88;5134077;27;20039;-75
2021/10/02 06:27:37;;;;;;;18.63;11.52;;;;;;;13.01;91.46;100941.56;5134078;27;20062;-74
2021/10/02 06:30:06;;;;;;;20.50;12.32;;;;;;;13.21;90.55;100944.91;5133881;27;20066;-75
2021/10/02 06:32:35;;;;;;;18.95;12.20;;;;;;;13.14;91.99;100947.94;5134043;27;20137;-75
2021/10/02 06:35:04;;;;;;;18.02;12.20;;;;;;;13.21;90.31;100944.91;5133636;27;20039;-74
2021/10/02 06:37:33;;;;;;;22.02;12.80;;;;;;;13.11;90.67;100948.09;5134084;27;20035;-74
2021/10/02 06:40:02;;;;;;;19.40;11.80;;;;;;;13.17;90.19;100947.75;5134080;27;20050;-74
2021/10/02 06:42:30;;;;;;;18.48;11.35;;;;;;;13.28;88.30;100959.66;5133972;27;20043;-78
2021/10/02 06:45:00;;;;;;;16.83;10.95;;;;;;;13.37;86.94;100953.75;5133900;27;20125;-75
2021/10/02 06:47:28;;;;;;;16.90;11.13;;;;;;;13.33;86.07;100960.25;5133611;27;20099;-85
2021/10/02 06:49:57;;;;;;;16.98;11.50;;;;;;;13.36;85.90;100957.38;5133960;27;20046;-72
2021/10/02 06:52:27;;;;;;;17.15;10.40;;;;;;;13.46;83.47;100955.88;5133501;28;20408;-74
2021/10/02 06:54:55;;;;;;;18.55;9.60;;;;;;;13.60;81.05;100961.22;5137930;28;20046;-79
2021/10/02 06:57:25;;;;;;;16.63;9.65;;;;;;;13.66;79.60;100952.81;5132946;27;20039;-73
2021/10/02 06:59:54;;;;;;;13.35;9.57;;;;;;;13.74;80.10;100958.56;5133530;27;20088;-73
2021/10/02 07:02:23;;;;;;;17.23;9.90;;;;;;;13.73;80.50;100956.84;5133172;27;20082;-73
2021/10/02 07:04:52;;;;;;;19.58;9.05;;;;;;;13.83;76.32;100954.47;5133628;27;20122;-75
2021/10/02 07:07:20;;;;;;;16.30;9.60;;;;;;;13.87;76.82;100947.94;5133242;27;20488;-75
2021/10/02 07:09:48;;;;;;;18.55;9.00;;;;;;;13.82;77.86;100947.38;5133356;27;20047;-74
2021/10/02 07:12:16;;;;;;;17.63;8.90;;;;;;;14.00;75.84;100948.91;5133535;27;20484;-74
2021/10/02 07:14:45;;;;;;;15.43;8.30;;;;;;;13.96;74.74;100938.44;5133268;27;20044;-77
2021/10/02 07:17:13;;;;;;;15.07;8.95;;;;;;;14.00;74.80;100937.31;5133341;27;20096;-77
2021/10/02 07:19:43;;;;;;;12.25;8.48;;;;;;;14.06;73.43;100942.28;5132960;27;20039;-74
2021/10/02 07:22:11;;;;;;;14.55;8.20;;;;;;;14.02;74.01;100935.41;5133341;27;20174;-74
2021/10/02 07:24:40;;;;;;;14.27;8.13;;;;;;;14.08;73.70;100939.50;5132888;27;20115;-82
2021/10/02 07:27:08;;;;;;;14.80;8.30;;;;;;;14.06;73.49;100950.31;5133225;27;20445;-74
2021/10/02 07:29:36;;;;;;;13.57;8.25;;;;;;;14.06;73.99;100942.28;5132372;27;20039;-74
2021/10/02 07:32:05;;;;;;;13.40;8.45;;;;;;;14.15;73.57;100947.06;5133107;27;20039;-72
2021/10/02 07:34:33;;;;;;;13.90;8.00;;;;;;;14.23;73.61;100944.75;5133085;27;20035;-75
2021/10/02 07:37:03;;;;;;;13.63;8.15;;;;;;;14.15;73.87;100952.41;5133024;27;20055;-75
2021/10/02 07:39:32;;;;;;;12.25;8.35;;;;;;;14.26;73.15;100949.91;5136678;27;20118;-71
2021/10/02 07:42:00;;;;;;;14.77;8.77;;;;;;;14.22;74.31;100948.38;5137050;27;20035;-76
2021/10/02 07:44:31;;;;;;;14.68;8.30;;;;;;;14.32;73.52;100944.16;5136640;27;20078;-75
2021/10/02 07:47:03;;;;;;;17.88;8.43;;;;;;;14.50;70.90;100942.13;5137162;27;20038;-72
2021/10/02 07:49:35;;;;;;;14.75;8.02;;;;;;;14.37;72.33;100946.53;5136863;27;20039;-72
2021/10/02 07:52:06;;;;;;;14.65;8.50;;;;;;;14.35;73.04;100948.44;5137384;27;20058;-72
2021/10/02 07:54:41;;;;;;;11.75;7.15;;;;;;;14.55;72.27;100949.88;5135685;27;20052;-73
2021/10/02 07:57:10;;;;;;;14.95;7.95;;;;;;;14.78;70.24;100946.53;5136890;27;20043;-73
2021/10/02 07:59:38;;;;;;;14.75;8.13;;;;;;;14.91;70.01;100945.72;5136401;27;20488;-73
2021/10/02 08:02:08;;;;;;;13.88;8.00;;;;;;;14.97;68.67;100950.69;5136622;27;20468;-72
2021/10/02 08:04:42;;;;;;;13.43;7.60;;;;;;;14.96;69.97;100939.06;5136402;27;20069;-73
2021/10/02 08:07:14;;;;;;;16.60;8.02;;;;;;;15.05;69.63;100949.16;5136930;27;20429;-72
2021/10/02 08:09:43;;;;;;;12.68;6.82;;;;;;;15.20;67.88;100951.78;5136368;27;20988;-73
2021/10/02 08:12:12;;;;;;;10.13;6.63;;;;;;;15.43;66.16;100951.06;5136547;27;20046;-74
2021/10/02 08:14:42;;;;;;;9.02;6.50;;;;;;;15.46;66.16;100951.72;5136278;27;20044;-75
2021/10/02 08:17:11;;;;;;;8.20;6.40;;;;;;;15.56;65.92;100948.41;5136465;27;20048;-73
2021/10/02 08:19:41;;;;;;;11.93;6.90;;;;;;;15.54;65.65;100950.31;5135939;27;20342;-76
2021/10/02 08:22:12;;;;;;;14.63;6.85;;;;;;;15.48;66.85;100951.63;5135807;27;20476;-72
2021/10/02 08:24:42;;;;;;;17.85;6.75;;;;;;;15.58;66.15;100957.22;5136044;27;20036;-74
2021/10/02 08:27:11;;;;;;;12.32;6.75;;;;;;;15.66;64.78;100946.81;5136066;27;20147;-73
2021/10/02 08:29:41;;;;;;;11.00;6.40;;;;;;;15.62;64.83;100942.59;5135785;27;20483;-62
2021/10/02 08:32:10;;;;;;;10.93;6.97;;;;;;;15.58;64.79;100944.63;5136144;27;20422;-65
2021/10/02 08:34:38;;;;;;;11.45;6.20;;;;;;;15.64;65.02;100949.63;5135615;27;20455;-66
2021/10/02 08:37:14;;;;;;;10.95;6.93;;;;;;;15.66;63.94;100944.13;5135609;27;20039;-65
2021/10/02 08:39:42;;;;;;;9.80;6.03;;;;;;;15.67;64.00;100940.47;5135622;27;20039;-65
2021/10/02 08:42:11;;;;;;;11.82;6.55;;;;;;;15.73;63.99;100940.03;5135589;27;20403;-65
2021/10/02 08:44:40;;;;;;;13.90;6.65;;;;;;;15.88;62.91;100938.94;5135174;27;20368;-65
2021/10/02 08:47:09;;;;;;;12.52;6.40;;;;;;;15.88;62.48;100933.56;5135274;27;20054;-65
2021/10/02 08:49:46;;;;;;;11.30;6.40;;;;;;;15.93;62.40;100936.78;5133924;27;20142;-65
2021/10/02 08:52:18;;;;;;;15.23;6.18;;;;;;;16.10;61.99;100937.38;5134654;27;20051;-65
2021/10/02 08:54:49;;;;;;;11.25;6.20;;;;;;;16.25;60.43;100930.91;5134090;27;20055;-64
2021/10/02 08:57:21;;;;;;;12.95;5.88;;;;;;;16.40;58.78;100935.16;5134865;27;20050;-64
2021/10/02 08:59:51;;;;;;;10.05;5.97;;;;;;;16.37;59.00;100932.69;5135064;27;20045;-66
2021/10/02 09:02:20;;;;;;;9.20;5.60;;;;;;;16.37;58.21;100931.81;5135115;27;20054;-65
2021/10/02 09:04:53;;;;;;;14.18;5.72;;;;;;;16.43;58.85;100934.94;5134995;27;20047;-64
2021/10/02 09:07:23;;;;;;;9.30;5.77;;;;;;;16.65;58.98;100938.72;5135244;27;20049;-65
2021/10/02 09:09:54;;;;;;;8.65;5.32;;;;;;;16.73;58.04;100939.06;5135669;27;20107;-65
2021/10/02 09:12:23;;;;;;;9.00;5.55;;;;;;;16.64;57.20;100942.41;5135519;27;20043;-65
2021/10/02 09:14:52;;;;;;;10.43;5.50;;;;;;;16.59;58.26;100942.72;5135584;27;20461;-66
2021/10/02 09:17:21;;;;;;;12.90;5.95;;;;;;;16.58;58.39;100939.16;5135471;27;20381;-65
2021/10/02 09:19:50;;;;;;;9.52;5.97;;;;;;;16.78;58.54;100929.63;5134922;27;20077;-65
2021/10/02 09:22:21;;;;;;;9.73;6.07;;;;;;;16.93;57.79;100921.38;5135379;27;20076;-65
2021/10/02 09:24:53;;;;;;;11.27;5.63;;;;;;;17.06;57.52;100925.69;5135079;27;20441;-64
2021/10/02 09:27:23;;;;;;;9.57;5.85;;;;;;;17.14;57.73;100917.88;5135215;27;20126;-66
2021/10/02 09:29:55;;;;;;;10.65;5.93;;;;;;;17.24;57.15;100919.88;5134574;27;20608;-65
2021/10/02 09:32:29;;;;;;;10.27;5.80;;;;;;;17.38;56.72;100916.97;5135106;27;20050;-66
2021/10/02 09:35:00;;;;;;;12.85;6.13;;;;;;;17.57;56.49;100916.41;5135299;27;20094;-66
2021/10/02 09:37:30;;;;;;;11.90;5.82;;;;;;;17.63;55.38;100922.16;5134924;27;20044;-73
2021/10/02 09:40:03;;;;;;;8.40;6.00;;;;;;;17.65;54.33;100914.78;5135069;27;20047;-65
2021/10/02 09:42:34;;;;;;;10.13;5.32;;;;;;;17.77;53.86;100901.34;5134770;27;20035;-66
2021/10/02 09:45:06;;;;;;;9.75;5.75;;;;;;;17.85;53.57;100910.53;5134950;27;20452;-65
2021/10/02 09:47:37;;;;;;;8.67;5.53;;;;;;;17.91;51.95;100901.94;5134703;27;20035;-66
2021/10/02 09:50:13;;;;;;;8.63;5.20;;;;;;;17.98;50.96;100897.78;5134868;27;20374;-65
2021/10/02 09:52:44;;;;;;;12.05;5.40;;;;;;;18.07;51.24;100898.88;5134480;27;20172;-66
2021/10/02 09:55:19;;;;;;;10.57;5.80;;;;;;;18.06;50.68;100902.56;5134692;27;20039;-66
2021/10/02 09:57:50;;;;;;;8.82;5.30;;;;;;;18.11;51.05;100897.63;5134829;27;20043;-66
2021/10/02 10:00:21;;;;;;;10.13;5.47;;;;;;;18.19;50.08;100892.47;5134703;27;20051;-65
2021/10/02 10:02:50;;;;;;;11.30;5.90;;;;;;;18.34;50.07;100895.78;5134376;27;20043;-66
2021/10/02 10:05:18;;;;;;;9.20;5.40;;;;;;;18.50;49.59;100887.22;5134135;27;20094;-66
2021/10/02 10:07:54;;;;;;;10.52;6.00;;;;;;;18.33;49.51;100893.16;5133822;27;20043;-67
2021/10/02 10:10:25;;;;;;;8.63;6.13;;;;;;;18.39;48.95;100885.44;5133489;27;20396;-66
2021/10/02 10:12:53;;;;;;;11.70;5.85;;;;;;;18.36;49.21;100888.41;5133682;27;20043;-66
2021/10/02 10:15:35;;;;;;;13.00;5.65;;;;;;;18.39;48.95;100887.28;5133974;27;20092;-66
2021/10/02 10:18:04;;;;;;;9.27;5.90;;;;;;;18.39;49.35;100881.88;5133837;27;20368;-67
2021/10/02 10:20:39;;;;;;;10.80;6.00;;;;;;;18.46;48.72;100888.47;5133424;27;20453;-67
2021/10/02 10:23:09;;;;;;;9.00;6.30;;;;;;;18.34;48.35;100878.72;5133819;27;20039;-66
2021/10/02 10:25:50;;;;;;;9.65;5.22;;;;;;;18.19;49.19;100881.66;5132869;27;20560;-66
2021/10/02 10:28:22;;;;;;;11.05;5.90;;;;;;;18.11;49.45;100876.03;5133511;27;20062;-66
2021/10/02 10:30:52;;;;;;;9.63;5.80;;;;;;;18.19;48.84;100880.81;5132760;27;20492;-66
2021/10/02 10:33:22;;;;;;;10.63;5.78;;;;;;;18.10;48.87;100881.56;5133255;27;20302;-65
2021/10/02 10:35:53;;;;;;;12.52;5.95;;;;;;;17.87;49.83;100875.34;5133726;27;20440;-66
2021/10/02 10:38:23;;;;;;;10.50;6.55;;;;;;;17.93;48.58;100877.53;5132509;27;20137;-66
2021/10/02 10:40:54;;;;;;;10.52;6.10;;;;;;;17.86;48.99;100873.63;5132964;27;20039;-66
2021/10/02 10:43:23;;;;;;;13.77;6.07;;;;;;;17.81;49.39;100873.13;5133049;27;20066;-66
2021/10/02 10:45:51;;;;;;;11.13;5.63;;;;;;;17.85;48.47;100871.88;5133132;27;20050;-66
2021/10/02 10:48:19;;;;;;;10.20;5.80;;;;;;;17.92;47.61;100859.63;5133387;27;20088;-66
2021/10/02 10:50:48;;;;;;;11.13;5.68;;;;;;;17.85;48.33;100866.50;5133303;27;20096;-66
2021/10/02 10:53:16;;;;;;;11.30;6.20;;;;;;;17.79;48.93;100857.06;5133670;28;20399;-66
2021/10/02 10:55:50;;;;;;;9.63;6.03;;;;;;;17.67;49.23;100858.03;5132161;27;20116;-66
2021/10/02 10:58:26;;;;;;;10.63;6.03;;;;;;;17.70;49.50;100858.66;5132680;28;20051;-66
2021/10/02 11:00:55;;;;;;;9.88;6.10;;;;;;;17.71;49.61;100852.28;5133425;28;20081;-66
2021/10/02 11:03:42;;;;;;;10.82;6.65;;;;;;;17.75;49.18;100839.41;5133645;28;20453;-66
2021/10/02 11:06:12;;;;;;;9.02;5.57;;;;;;;17.79;48.83;100843.59;5133573;27;20089;-66
2021/10/02 11:09:03;;;;;;;10.50;5.90;;;;;;;17.69;49.08;100832.69;5133418;27;20129;-66
2021/10/02 11:11:59;;;;;;;10.43;6.13;;;;;;;17.76;49.74;100830.34;5133790;27;20126;-66
2021/10/02 11:15:05;;;;;;;11.70;6.22;;;;;;;17.76;50.59;100829.47;5119407;27;20130;-67
2021/10/02 11:17:45;;;;;;;8.88;6.15;;;;;;;17.80;50.10;100822.84;5124690;27;20492;-65
2021/10/02 11:20:36;;;;;;;13.30;6.00;;;;;;;17.78;50.32;100825.69;5139649;27;20066;-65
2021/10/02 11:24:11;;;;;;;9.82;6.03;;;;;;;17.87;48.94;100815.97;5137486;27;20108;-64
2021/10/02 11:27:01;;;;;;;9.45;5.32;;;;;;;17.84;49.44;100811.66;5136705;27;20059;-65
2021/10/02 11:29:31;;;;;;;11.00;5.82;;;;;;;17.91;48.79;100812.88;5136788;27;20053;-64
2021/10/02 11:32:35;;;;;;;13.80;5.80;;;;;;;17.81;48.70;100817.31;5136914;27;20138;-64
2021/10/02 11:35:23;;;;;;;9.77;6.22;;;;;;;17.83;48.98;100819.91;5053647;28;20414;-64
2021/10/02 11:37:55;;;;;;;9.20;6.07;;;;;;;17.76;49.64;100815.97;5052994;28;20045;-64
2021/10/02 11:40:50;;;;;;;9.00;5.78;;;;;;;17.78;49.42;100808.63;5106907;27;20047;-64
2021/10/02 11:43:30;;;;;;;11.65;6.13;;;;;;;17.72;49.81;100801.88;5136667;27;20043;-64
2021/10/02 11:46:07;;;;;;;10.70;6.22;;;;;;;17.84;49.30;100811.66;5136503;27;20050;-64
2021/10/02 11:48:44;;;;;;;12.85;6.57;;;;;;;17.80;48.94;100804.81;5136688;27;20039;-64
2021/10/02 11:51:26;;;;;;;9.93;6.28;;;;;;;17.69;49.02;100803.00;5136478;27;20046;-64
2021/10/02 11:53:57;;;;;;;10.35;5.70;;;;;;;17.60;49.38;100795.63;5136120;27;20051;-64
2021/10/02 11:56:29;;;;;;;13.70;6.15;;;;;;;17.63;50.76;100781.00;5136608;27;20121;-64
2021/10/02 11:58:59;;;;;;;8.75;5.50;;;;;;;17.74;50.54;100795.38;5136079;27;20526;-64
2021/10/02 12:01:29;;;;;;;8.98;5.85;;;;;;;17.80;50.23;100772.44;5136086;27;20047;-64
2021/10/02 12:04:03;;;;;;;11.27;5.47;;;;;;;17.74;49.75;100776.47;5134232;27;20303;-64
2021/10/02 12:06:33;;;;;;;10.93;6.15;;;;;;;17.69;50.33;100769.75;5135421;27;20476;-64
2021/10/02 12:09:02;;;;;;;11.25;6.20;;;;;;;17.73;50.24;100777.47;5135305;27;20114;-64
2021/10/02 12:11:39;;;;;;;9.20;6.10;;;;;;;17.77;50.35;100786.19;5135143;27;20109;-64
2021/10/02 12:14:08;;;;;;;12.10;5.88;;;;;;;17.79;49.85;100776.13;5135183;27;20591;-64
2021/10/02 12:16:37;;;;;;;14.70;6.35;;;;;;;17.78;50.84;100768.16;5134721;27;20070;-64
2021/10/02 12:19:09;;;;;;;10.55;6.05;;;;;;;17.90;49.50;100761.75;5134513;27;20047;-64
2021/10/02 12:21:41;;;;;;;11.50;6.07;;;;;;;17.88;50.01;100766.41;5135459;27;20074;-64